Time;durP1;ratioP1;P1;durP2;ratioP2;P2;SDS_P1;SDS_P2;PMS_P1;PMS_P2;Temp;Humidity;BMP_temperature;BMP_pressure;BME280_temperature;BME280_humidity;BME280_pressure;Samples;Min_cycle;Max_cycle;Signal;HPM_P1;HPM_P2
2022/03/30 00:02:09;;;;;;;13.20;6.97;;;;;;;;;;5053798;28;20258;-90
2022/03/30 00:04:38;;;;;;;14.97;8.40;;;;;;;;;;5047162;28;20232;-90
2022/03/30 00:07:06;;;;;;;13.93;8.73;;;;;;;;;;5050429;28;20229;-90
2022/03/30 00:09:33;;;;;;;13.33;7.80;;;;;;;;;;5053396;28;20649;-90
2022/03/30 00:12:00;;;;;;;12.67;7.17;;;;;;;;;;5049605;28;20756;-90
2022/03/30 00:14:28;;;;;;;15.80;7.93;;;;;;;;;;5051668;28;20302;-90
2022/03/30 00:16:55;;;;;;;14.17;8.50;;;;;;;;;;5063229;28;20218;-90
2022/03/30 00:19:23;;;;;;;14.20;8.20;;;;;;;;;;5053328;28;20210;-90
2022/03/30 00:21:51;;;;;;;15.00;8.70;;;;;;;;;;5045652;28;20238;-90
2022/03/30 00:24:18;;;;;;;16.33;7.97;;;;;;;;;;5058231;28;20225;-90
2022/03/30 00:26:45;;;;;;;15.00;8.33;;;;;;;;;;5073110;28;20217;-89
2022/03/30 00:29:13;;;;;;;17.40;8.83;;;;;;;;;;5054541;28;20205;-90
2022/03/30 00:31:40;;;;;;;14.80;8.13;;;;;;;;;;5053218;28;20210;-90
2022/03/30 00:34:07;;;;;;;17.03;8.13;;;;;;;;;;5072150;28;20193;-89
2022/03/30 00:36:36;;;;;;;14.47;7.90;;;;;;;;;;5073183;28;20201;-90
2022/03/30 00:39:03;;;;;;;12.17;7.97;;;;;;;;;;5059236;28;20194;-89
2022/03/30 00:41:31;;;;;;;14.33;8.60;;;;;;;;;;5057796;28;20201;-90
2022/03/30 00:43:58;;;;;;;22.67;8.63;;;;;;;;;;5053219;28;20241;-90
2022/03/30 00:46:25;;;;;;;18.03;8.60;;;;;;;;;;5051050;28;20201;-90
2022/03/30 00:48:52;;;;;;;16.30;8.23;;;;;;;;;;5047150;28;20268;-89
2022/03/30 00:51:20;;;;;;;12.87;8.13;;;;;;;;;;5069359;28;20205;-89
2022/03/30 00:54:01;;;;;;;16.57;8.90;;;;;;;;;;5127919;27;20554;-32
2022/03/30 00:56:31;;;;;;;15.40;8.70;;;;;;;;;;5115340;28;20246;-31
2022/03/30 00:58:58;;;;;;;10.97;7.70;;;;;;;;;;5126355;28;20213;-33
2022/03/30 01:01:26;;;;;;;15.33;8.87;;;;;;;;;;5121971;28;20661;-34
2022/03/30 01:03:53;;;;;;;14.63;8.70;;;;;;;;;;5120778;27;20218;-32
2022/03/30 01:06:20;;;;;;;16.47;8.60;;;;;;;;;;5127830;27;20461;-31
2022/03/30 01:08:48;;;;;;;18.00;8.90;;;;;;;;;;5128949;27;20238;-30
2022/03/30 01:11:17;;;;;;;14.33;8.07;;;;;;;;;;5112814;27;20208;-30
2022/03/30 01:13:45;;;;;;;18.43;9.10;;;;;;;;;;5123064;28;20655;-33
2022/03/30 01:16:12;;;;;;;14.23;8.57;;;;;;;;;;5126949;27;20335;-33
2022/03/30 01:18:39;;;;;;;16.93;9.60;;;;;;;;;;5123006;27;21173;-30
2022/03/30 01:21:08;;;;;;;17.13;8.40;;;;;;;;;;5124630;27;20235;-28
2022/03/30 01:23:35;;;;;;;17.23;9.47;;;;;;;;;;5126850;27;20192;-32
2022/03/30 01:26:05;;;;;;;15.87;8.77;;;;;;;;;;5126340;27;20829;-33
2022/03/30 01:28:33;;;;;;;14.90;8.23;;;;;;;;;;5117063;27;20203;-37
2022/03/30 01:33:46;;;;;;;15.57;9.87;;;;;;;;;;5127353;28;20284;-32
2022/03/30 01:36:17;;;;;;;16.37;8.23;;;;;;;;;;5114647;27;20254;-36
2022/03/30 01:38:44;;;;;;;14.17;8.37;;;;;;;;;;5118399;27;20218;-30
2022/03/30 01:41:12;;;;;;;16.93;9.47;;;;;;;;;;5128063;27;20216;-33
2022/03/30 01:43:39;;;;;;;17.63;8.43;;;;;;;;;;5128591;27;20204;-33
2022/03/30 01:46:06;;;;;;;13.93;8.47;;;;;;;;;;5122587;27;20276;-29
2022/03/30 01:48:34;;;;;;;14.67;9.33;;;;;;;;;;5123925;28;20234;-29
2022/03/30 01:51:01;;;;;;;16.17;8.90;;;;;;;;;;5121944;27;20207;-26
2022/03/30 01:53:30;;;;;;;11.70;8.23;;;;;;;;;;5121423;28;20215;-29
2022/03/30 01:55:57;;;;;;;13.07;8.83;;;;;;;;;;5129910;27;20258;-36
2022/03/30 01:58:25;;;;;;;12.97;8.03;;;;;;;;;;5129810;27;20196;-34
2022/03/30 02:00:52;;;;;;;11.70;6.93;;;;;;;;;;5126799;27;20544;-29
2022/03/30 02:03:19;;;;;;;14.17;8.03;;;;;;;;;;5115408;27;20218;-34
2022/03/30 02:05:49;;;;;;;16.17;8.80;;;;;;;;;;5103750;28;20220;-35
2022/03/30 02:08:16;;;;;;;11.50;7.10;;;;;;;;;;5112677;28;20208;-29
2022/03/30 02:10:45;;;;;;;14.63;8.10;;;;;;;;;;5105297;28;20205;-29
2022/03/30 02:13:12;;;;;;;16.53;8.43;;;;;;;;;;5110997;28;20224;-30
2022/03/30 02:15:39;;;;;;;15.83;8.90;;;;;;;;;;5112048;28;20247;-34
2022/03/30 02:18:07;;;;;;;13.87;8.20;;;;;;;;;;5112841;28;20232;-30
2022/03/30 02:20:34;;;;;;;15.07;8.83;;;;;;;;;;5104482;28;20264;-34
2022/03/30 02:23:02;;;;;;;16.10;9.17;;;;;;;;;;5111018;28;20200;-34
2022/03/30 02:25:29;;;;;;;15.67;9.27;;;;;;;;;;5112230;27;20219;-38
2022/03/30 02:27:57;;;;;;;13.20;7.80;;;;;;;;;;5102218;28;20200;-34
2022/03/30 02:30:25;;;;;;;14.93;9.10;;;;;;;;;;5109355;28;20236;-35
2022/03/30 02:32:52;;;;;;;14.77;9.07;;;;;;;;;;5111894;28;20277;-34
2022/03/30 02:35:19;;;;;;;14.43;9.33;;;;;;;;;;5111149;28;20224;-37
2022/03/30 02:37:54;;;;;;;14.43;8.70;;;;;;;;;;5091475;28;20204;-30
2022/03/30 02:40:21;;;;;;;18.10;8.57;;;;;;;;;;5105291;28;20268;-32
2022/03/30 02:42:49;;;;;;;19.63;8.90;;;;;;;;;;5112149;28;20230;-36
2022/03/30 02:45:17;;;;;;;14.53;8.47;;;;;;;;;;5104507;28;20304;-31
2022/03/30 02:50:29;;;;;;;15.47;10.13;;;;;;;;;;5102387;28;20207;-33
2022/03/30 02:52:57;;;;;;;16.03;9.30;;;;;;;;;;5091510;28;20290;-33
2022/03/30 02:55:25;;;;;;;16.57;8.80;;;;;;;;;;5099472;28;20228;-34
2022/03/30 02:57:52;;;;;;;15.40;9.40;;;;;;;;;;5104641;28;20207;-33
2022/03/30 03:00:21;;;;;;;13.83;8.70;;;;;;;;;;5105086;28;20228;-32
2022/03/30 03:02:49;;;;;;;15.60;8.90;;;;;;;;;;5108219;28;20279;-35
2022/03/30 03:05:16;;;;;;;13.60;8.30;;;;;;;;;;5109876;28;20255;-30
2022/03/30 03:07:43;;;;;;;11.07;7.57;;;;;;;;;;5110654;28;20286;-31
2022/03/30 03:10:10;;;;;;;15.77;8.83;;;;;;;;;;5102211;28;20204;-29
2022/03/30 03:12:37;;;;;;;11.73;8.33;;;;;;;;;;5106633;28;20276;-37
2022/03/30 03:15:05;;;;;;;15.63;9.13;;;;;;;;;;5110028;28;20277;-27
2022/03/30 03:17:33;;;;;;;13.60;8.40;;;;;;;;;;5097033;28;20296;-28
2022/03/30 03:20:01;;;;;;;15.23;8.93;;;;;;;;;;5102030;28;20248;-30
2022/03/30 03:22:28;;;;;;;15.63;9.00;;;;;;;;;;5111307;28;20233;-31
2022/03/30 03:24:55;;;;;;;13.17;8.63;;;;;;;;;;5107615;28;20281;-31
2022/03/30 03:27:22;;;;;;;16.33;9.20;;;;;;;;;;5101922;28;20744;-32
2022/03/30 03:29:50;;;;;;;16.27;9.43;;;;;;;;;;5107065;28;20253;-26
2022/03/30 03:32:17;;;;;;;17.60;8.60;;;;;;;;;;5111286;28;20238;-37
2022/03/30 03:34:45;;;;;;;12.43;8.70;;;;;;;;;;5103126;28;20647;-32
2022/03/30 03:37:13;;;;;;;13.70;7.97;;;;;;;;;;5103308;28;20253;-32
2022/03/30 03:39:40;;;;;;;16.70;8.20;;;;;;;;;;5110008;28;20199;-34
2022/03/30 03:42:08;;;;;;;13.23;8.47;;;;;;;;;;5100764;28;20196;-36
2022/03/30 03:44:35;;;;;;;11.60;8.33;;;;;;;;;;5109879;28;20207;-35
2022/03/30 03:47:02;;;;;;;14.07;8.93;;;;;;;;;;5111212;27;20267;-30
2022/03/30 03:49:30;;;;;;;19.63;9.47;;;;;;;;;;5101590;28;20207;-35
2022/03/30 03:51:58;;;;;;;16.67;9.50;;;;;;;;;;5102047;28;20212;-33
2022/03/30 03:54:25;;;;;;;15.30;9.67;;;;;;;;;;5110460;28;20259;-31
2022/03/30 03:56:53;;;;;;;11.53;8.27;;;;;;;;;;5106190;28;20204;-34
2022/03/30 03:59:20;;;;;;;13.70;9.03;;;;;;;;;;5102504;28;20253;-29
2022/03/30 04:01:47;;;;;;;19.77;9.43;;;;;;;;;;5110510;28;20730;-32
2022/03/30 04:04:14;;;;;;;16.90;9.10;;;;;;;;;;5110091;28;20234;-32
2022/03/30 04:06:42;;;;;;;15.43;9.07;;;;;;;;;;5104195;28;20227;-34
2022/03/30 04:09:10;;;;;;;16.20;9.87;;;;;;;;;;5102364;28;20290;-32
2022/03/30 04:11:38;;;;;;;15.80;9.23;;;;;;;;;;5105716;28;20196;-31
2022/03/30 04:14:05;;;;;;;15.77;9.20;;;;;;;;;;5110519;28;20260;-29
2022/03/30 04:16:32;;;;;;;21.57;9.70;;;;;;;;;;5098246;28;20255;-35
2022/03/30 04:19:00;;;;;;;14.60;8.63;;;;;;;;;;5106001;28;20200;-31
2022/03/30 04:21:27;;;;;;;13.93;8.23;;;;;;;;;;5110306;28;20200;-34
2022/03/30 04:23:54;;;;;;;20.73;9.87;;;;;;;;;;5110207;28;20264;-29
2022/03/30 04:26:23;;;;;;;17.03;8.70;;;;;;;;;;5097940;28;20709;-27
2022/03/30 04:28:50;;;;;;;13.87;8.23;;;;;;;;;;5108445;28;20235;-33
2022/03/30 04:31:18;;;;;;;17.20;9.27;;;;;;;;;;5109619;28;20309;-35
2022/03/30 04:33:45;;;;;;;14.87;9.20;;;;;;;;;;5109962;28;20231;-34
2022/03/30 04:36:12;;;;;;;12.13;8.83;;;;;;;;;;5102155;28;20239;-31
2022/03/30 04:38:39;;;;;;;15.90;9.33;;;;;;;;;;5097943;28;20201;-32
2022/03/30 04:41:07;;;;;;;13.47;7.93;;;;;;;;;;5100716;28;20222;-30
2022/03/30 04:43:35;;;;;;;15.20;8.77;;;;;;;;;;5102640;28;20223;-37
2022/03/30 04:46:03;;;;;;;15.03;9.53;;;;;;;;;;5109960;28;20262;-31
2022/03/30 04:48:30;;;;;;;15.80;8.63;;;;;;;;;;5089642;28;20228;-32
2022/03/30 04:50:59;;;;;;;12.83;9.90;;;;;;;;;;5096071;28;20292;-29
2022/03/30 04:53:27;;;;;;;15.27;9.67;;;;;;;;;;5109639;28;20348;-32
2022/03/30 04:55:54;;;;;;;13.77;9.87;;;;;;;;;;5100678;28;20273;-32
2022/03/30 04:58:21;;;;;;;18.40;8.97;;;;;;;;;;5105361;28;20702;-31
2022/03/30 05:00:50;;;;;;;16.70;9.40;;;;;;;;;;5113248;28;20273;-32
2022/03/30 05:03:17;;;;;;;15.80;9.50;;;;;;;;;;5111924;28;20268;-35
2022/03/30 05:05:45;;;;;;;14.87;9.13;;;;;;;;;;5108603;28;20219;-31
2022/03/30 05:08:12;;;;;;;18.17;9.67;;;;;;;;;;5105424;28;20288;-32
2022/03/30 05:10:39;;;;;;;18.87;8.83;;;;;;;;;;5105614;28;20231;-28
2022/03/30 05:13:06;;;;;;;14.87;8.83;;;;;;;;;;5109900;28;20208;-29
2022/03/30 05:15:34;;;;;;;17.97;10.67;;;;;;;;;;5099560;28;20245;-32
2022/03/30 05:18:03;;;;;;;15.17;9.73;;;;;;;;;;5108172;28;20225;-33
2022/03/30 05:20:30;;;;;;;15.70;9.27;;;;;;;;;;5090833;28;20197;-35
2022/03/30 05:22:57;;;;;;;12.67;9.73;;;;;;;;;;5100701;28;20292;-30
2022/03/30 05:25:24;;;;;;;21.70;10.60;;;;;;;;;;5103335;28;20254;-33
2022/03/30 05:27:52;;;;;;;16.87;9.77;;;;;;;;;;5110654;28;20305;-31
2022/03/30 05:30:19;;;;;;;16.17;9.83;;;;;;;;;;5108033;28;20222;-26
2022/03/30 05:32:48;;;;;;;15.37;9.40;;;;;;;;;;5102417;28;20204;-33
2022/03/30 05:35:16;;;;;;;12.70;8.83;;;;;;;;;;5108791;28;20227;-30
2022/03/30 05:37:47;;;;;;;17.27;10.10;;;;;;;;;;5092082;28;20228;-28
2022/03/30 05:40:15;;;;;;;15.20;10.17;;;;;;;;;;5094283;28;20201;-32
2022/03/30 05:42:42;;;;;;;17.23;11.00;;;;;;;;;;5110332;28;20219;-27
2022/03/30 05:45:10;;;;;;;16.83;10.30;;;;;;;;;;5113114;28;20212;-28
2022/03/30 05:47:38;;;;;;;18.50;10.93;;;;;;;;;;5106787;28;20196;-31
2022/03/30 05:50:07;;;;;;;19.40;11.53;;;;;;;;;;5096385;28;20209;-36
2022/03/30 05:52:36;;;;;;;19.10;11.17;;;;;;;;;;5111267;28;20294;-32
2022/03/30 05:55:03;;;;;;;22.40;12.00;;;;;;;;;;5115291;28;20234;-33
2022/03/30 05:57:31;;;;;;;17.43;10.10;;;;;;;;;;5115460;28;20238;-31
2022/03/30 05:59:58;;;;;;;19.73;12.03;;;;;;;;;;5109387;27;20298;-31
2022/03/30 06:02:26;;;;;;;17.93;11.13;;;;;;;;;;5114671;28;20227;-34
2022/03/30 06:04:53;;;;;;;14.53;10.30;;;;;;;;;;5114866;28;20239;-33
2022/03/30 06:07:21;;;;;;;17.50;10.27;;;;;;;;;;5111078;28;20271;-31
2022/03/30 06:09:50;;;;;;;16.87;10.10;;;;;;;;;;5104141;28;20252;-29
2022/03/30 06:12:17;;;;;;;17.10;10.63;;;;;;;;;;5114858;28;20241;-37
2022/03/30 06:14:45;;;;;;;17.70;11.27;;;;;;;;;;5108430;28;20240;-31
2022/03/30 06:17:13;;;;;;;19.33;11.83;;;;;;;;;;5114960;28;20271;-31
2022/03/30 06:19:41;;;;;;;22.43;11.93;;;;;;;;;;5115063;28;20207;-31
2022/03/30 06:22:09;;;;;;;21.53;12.17;;;;;;;;;;5112090;27;20219;-35
2022/03/30 06:24:37;;;;;;;19.20;11.10;;;;;;;;;;5109295;28;20204;-35
2022/03/30 06:27:06;;;;;;;17.93;11.17;;;;;;;;;;5114609;28;20196;-30
2022/03/30 06:29:33;;;;;;;24.77;16.20;;;;;;;;;;5101746;27;20284;-31
2022/03/30 06:32:01;;;;;;;19.83;11.43;;;;;;;;;;5100011;28;20204;-34
2022/03/30 06:34:28;;;;;;;23.27;10.80;;;;;;;;;;5111519;28;20256;-32
2022/03/30 06:36:55;;;;;;;23.27;11.80;;;;;;;;;;5113394;28;20200;-27
2022/03/30 06:39:23;;;;;;;20.60;11.73;;;;;;;;;;5102489;28;20250;-36
2022/03/30 06:41:52;;;;;;;22.87;11.30;;;;;;;;;;5098410;28;20265;-32
2022/03/30 06:44:21;;;;;;;18.50;10.80;;;;;;;;;;5112047;28;20279;-35
2022/03/30 06:46:48;;;;;;;20.53;11.07;;;;;;;;;;5098480;28;20228;-35
2022/03/30 06:49:17;;;;;;;23.17;11.73;;;;;;;;;;5092538;28;20361;-32
2022/03/30 06:51:44;;;;;;;21.20;11.47;;;;;;;;;;5100821;28;20199;-32
2022/03/30 06:54:11;;;;;;;19.07;10.60;;;;;;;;;;5113543;28;20236;-31
2022/03/30 06:56:38;;;;;;;17.80;11.03;;;;;;;;;;5114499;28;20282;-29
2022/03/30 06:59:05;;;;;;;26.87;13.20;;;;;;;;;;5104763;28;20601;-35
2022/03/30 07:01:35;;;;;;;22.57;12.50;;;;;;;;;;5105093;28;20242;-30
2022/03/30 07:04:02;;;;;;;31.23;14.50;;;;;;;;;;5113778;28;20206;-36
2022/03/30 07:06:33;;;;;;;29.17;13.40;;;;;;;;;;5114163;28;20304;-35
2022/03/30 07:11:44;;;;;;;31.10;15.47;;;;;;;;;;5111821;28;20245;-35
2022/03/30 07:14:13;;;;;;;22.53;12.03;;;;;;;;;;5111740;28;20313;-33
2022/03/30 07:16:42;;;;;;;16.93;10.67;;;;;;;;;;5103909;28;20240;-31
2022/03/30 07:19:09;;;;;;;20.07;10.73;;;;;;;;;;5104676;28;20241;-37
2022/03/30 07:21:36;;;;;;;22.27;11.77;;;;;;;;;;5114029;28;20196;-31
2022/03/30 07:24:04;;;;;;;23.00;12.10;;;;;;;;;;5113956;28;20200;-28
2022/03/30 07:26:32;;;;;;;19.00;10.67;;;;;;;;;;5103054;28;20302;-32
2022/03/30 07:28:59;;;;;;;22.43;12.80;;;;;;;;;;5113335;28;20584;-35
2022/03/30 07:31:27;;;;;;;23.30;11.47;;;;;;;;;;5114260;28;20212;-31
2022/03/30 07:33:55;;;;;;;18.30;10.07;;;;;;;;;;5105595;28;20215;-36
2022/03/30 07:36:22;;;;;;;17.77;10.70;;;;;;;;;;5107696;28;20247;-34
2022/03/30 07:38:50;;;;;;;24.27;12.20;;;;;;;;;;5109326;28;20278;-30
2022/03/30 07:41:17;;;;;;;31.87;12.90;;;;;;;;;;5093293;28;20300;-34
2022/03/30 07:43:45;;;;;;;22.67;12.47;;;;;;;;;;5103266;28;20287;-31
2022/03/30 07:46:13;;;;;;;26.60;13.50;;;;;;;;;;5108704;28;20283;-31
2022/03/30 07:48:41;;;;;;;19.13;11.80;;;;;;;;;;5113677;28;20256;-32
2022/03/30 07:51:10;;;;;;;27.63;13.13;;;;;;;;;;5113681;28;20204;-37
2022/03/30 07:53:37;;;;;;;18.63;11.40;;;;;;;;;;5109059;28;20248;-31
2022/03/30 07:56:05;;;;;;;18.30;10.97;;;;;;;;;;5112256;28;20224;-34
2022/03/30 07:58:32;;;;;;;21.40;11.47;;;;;;;;;;5113551;28;20252;-36
2022/03/30 08:00:59;;;;;;;20.60;12.70;;;;;;;;;;5100367;28;20228;-30
2022/03/30 08:03:27;;;;;;;17.57;12.13;;;;;;;;;;5108661;28;20207;-31
2022/03/30 08:05:54;;;;;;;22.17;12.03;;;;;;;;;;5115090;28;20242;-35
2022/03/30 08:08:23;;;;;;;25.07;13.43;;;;;;;;;;5110988;28;20210;-34
2022/03/30 08:10:50;;;;;;;25.13;13.30;;;;;;;;;;5110213;28;20290;-32
2022/03/30 08:13:17;;;;;;;21.33;13.13;;;;;;;;;;5111510;28;20242;-35
2022/03/30 08:15:45;;;;;;;23.10;11.80;;;;;;;;;;5113596;28;20232;-29
2022/03/30 08:18:12;;;;;;;21.97;13.57;;;;;;;;;;5107207;28;20298;-34
2022/03/30 08:23:26;;;;;;;21.90;11.83;;;;;;;;;;5112514;28;20249;-36
2022/03/30 08:25:53;;;;;;;25.37;12.73;;;;;;;;;;5102724;27;20217;-36
2022/03/30 08:28:20;;;;;;;29.60;14.60;;;;;;;;;;5105800;28;20260;-31
2022/03/30 08:30:48;;;;;;;22.60;12.57;;;;;;;;;;5111593;28;20241;-38
2022/03/30 08:33:16;;;;;;;26.63;13.33;;;;;;;;;;5110076;28;20203;-31
2022/03/30 08:35:44;;;;;;;17.97;12.93;;;;;;;;;;5103349;28;20230;-30
2022/03/30 08:38:13;;;;;;;23.27;11.87;;;;;;;;;;5104426;28;20222;-29
2022/03/30 08:40:48;;;;;;;25.53;13.23;;;;;;;;;;5101087;28;20208;-32
2022/03/30 08:43:15;;;;;;;27.60;12.70;;;;;;;;;;5104274;28;20224;-32
2022/03/30 08:45:45;;;;;;;27.27;13.03;;;;;;;;;;5111618;28;20216;-24
2022/03/30 08:48:12;;;;;;;26.77;13.50;;;;;;;;;;5109090;28;20204;-32
2022/03/30 08:50:39;;;;;;;22.03;12.23;;;;;;;;;;5110080;28;20214;-33
2022/03/30 08:53:07;;;;;;;20.00;11.87;;;;;;;;;;5111258;28;20265;-36
2022/03/30 08:55:35;;;;;;;25.30;12.33;;;;;;;;;;5107829;28;20232;-32
2022/03/30 08:58:04;;;;;;;29.80;13.63;;;;;;;;;;5106657;28;20824;-33
2022/03/30 09:00:34;;;;;;;27.27;13.10;;;;;;;;;;5110875;28;20249;-35
2022/03/30 09:03:03;;;;;;;21.93;12.23;;;;;;;;;;5111338;28;20285;-36
2022/03/30 09:05:31;;;;;;;25.77;12.63;;;;;;;;;;5102376;28;20265;-30
2022/03/30 09:08:08;;;;;;;25.60;13.47;;;;;;;;;;5112051;28;20192;-37
2022/03/30 09:10:36;;;;;;;22.10;12.67;;;;;;;;;;5096497;28;20228;-32
2022/03/30 09:13:06;;;;;;;19.83;12.70;;;;;;;;;;5106306;28;20635;-34
2022/03/30 09:15:34;;;;;;;27.17;12.47;;;;;;;;;;5115170;28;20219;-35
2022/03/30 09:18:02;;;;;;;29.07;13.73;;;;;;;;;;5116227;28;20251;-32
2022/03/30 09:20:29;;;;;;;25.90;12.47;;;;;;;;;;5104499;28;20237;-30
2022/03/30 09:22:58;;;;;;;24.57;13.13;;;;;;;;;;5115266;28;20214;-33
2022/03/30 09:25:26;;;;;;;25.10;12.57;;;;;;;;;;5115737;28;20211;-31
2022/03/30 09:27:55;;;;;;;21.83;12.47;;;;;;;;;;5115785;28;20340;-30
2022/03/30 09:30:24;;;;;;;18.30;11.73;;;;;;;;;;5105790;28;20239;-33
2022/03/30 09:33:01;;;;;;;23.60;13.43;;;;;;;;;;5094593;28;20291;-34
2022/03/30 09:35:34;;;;;;;20.97;12.07;;;;;;;;;;5115715;28;20219;-29
2022/03/30 09:38:08;;;;;;;23.27;11.80;;;;;;;;;;5108352;28;20214;-36
2022/03/30 09:40:41;;;;;;;29.50;12.40;;;;;;;;;;5106572;28;20192;-30
2022/03/30 09:43:13;;;;;;;21.20;11.80;;;;;;;;;;5115483;28;20249;-30
2022/03/30 09:45:42;;;;;;;22.80;11.97;;;;;;;;;;5115843;28;20220;-33
2022/03/30 09:48:13;;;;;;;19.27;11.57;;;;;;;;;;5111142;28;20207;-32
2022/03/30 09:50:44;;;;;;;22.43;11.13;;;;;;;;;;5109097;28;20207;-33
2022/03/30 09:53:13;;;;;;;26.17;12.60;;;;;;;;;;5107724;28;20204;-32
2022/03/30 09:55:52;;;;;;;21.97;12.60;;;;;;;;;;5115879;28;20232;-29
2022/03/30 09:58:21;;;;;;;24.20;12.10;;;;;;;;;;5108351;28;20208;-31
2022/03/30 10:01:04;;;;;;;23.37;12.83;;;;;;;;;;5112491;28;20200;-38
2022/03/30 10:03:41;;;;;;;22.53;12.50;;;;;;;;;;5115642;28;20173;-34
2022/03/30 10:06:09;;;;;;;25.67;13.10;;;;;;;;;;5100856;28;20227;-38
2022/03/30 10:08:36;;;;;;;22.87;12.07;;;;;;;;;;5115233;28;20202;-35
2022/03/30 10:11:04;;;;;;;19.67;11.97;;;;;;;;;;5115939;28;20235;-33
2022/03/30 10:13:31;;;;;;;21.63;12.77;;;;;;;;;;5108847;28;20232;-33
2022/03/30 10:15:59;;;;;;;24.07;13.17;;;;;;;;;;5115509;28;20290;-37
2022/03/30 10:18:26;;;;;;;25.80;13.10;;;;;;;;;;5115244;28;20220;-38
2022/03/30 10:21:07;;;;;;;23.53;12.33;;;;;;;;;;5109364;28;20199;-28
2022/03/30 10:23:40;;;;;;;19.37;11.87;;;;;;;;;;5115056;28;20198;-33
2022/03/30 10:26:14;;;;;;;21.87;11.70;;;;;;;;;;5115391;28;20212;-28
2022/03/30 10:28:47;;;;;;;23.40;12.67;;;;;;;;;;5114769;28;20212;-33
2022/03/30 10:31:25;;;;;;;24.63;12.07;;;;;;;;;;5106316;28;20249;-31
2022/03/30 10:33:52;;;;;;;24.10;12.23;;;;;;;;;;5112439;28;20253;-26
2022/03/30 10:36:25;;;;;;;25.07;11.87;;;;;;;;;;5115612;28;20238;-31
2022/03/30 10:39:09;;;;;;;24.27;11.67;;;;;;;;;;5108460;28;20211;-34
2022/03/30 10:41:49;;;;;;;24.93;11.50;;;;;;;;;;5104177;28;20204;-33
2022/03/30 10:44:34;;;;;;;21.17;11.77;;;;;;;;;;5107496;28;20200;-29
2022/03/30 10:47:08;;;;;;;23.17;11.20;;;;;;;;;;5115268;27;20222;-34
2022/03/30 10:49:39;;;;;;;18.67;10.70;;;;;;;;;;5100266;28;20196;-38
2022/03/30 10:52:27;;;;;;;20.77;11.93;;;;;;;;;;5106736;28;20207;-32
2022/03/30 10:55:14;;;;;;;21.77;11.83;;;;;;;;;;5114770;28;20223;-36
2022/03/30 10:57:47;;;;;;;19.27;12.27;;;;;;;;;;5102661;28;20200;-35
2022/03/30 11:00:18;;;;;;;18.50;10.70;;;;;;;;;;5106877;28;20199;-33
2022/03/30 11:02:46;;;;;;;21.73;10.43;;;;;;;;;;5114499;27;20284;-36
2022/03/30 11:05:14;;;;;;;18.00;10.47;;;;;;;;;;5105728;28;20239;-38
2022/03/30 11:07:41;;;;;;;27.83;12.00;;;;;;;;;;5106888;28;20269;-33
2022/03/30 11:10:15;;;;;;;23.13;11.67;;;;;;;;;;5111896;27;20261;-35
2022/03/30 11:13:02;;;;;;;22.20;11.70;;;;;;;;;;5106264;28;20204;-30
2022/03/30 11:15:31;;;;;;;21.77;10.77;;;;;;;;;;5100681;28;20295;-32
2022/03/30 11:18:13;;;;;;;28.03;13.20;;;;;;;;;;5114356;27;20340;-34
2022/03/30 11:20:40;;;;;;;24.17;11.57;;;;;;;;;;5091353;28;20204;-30
2022/03/30 11:23:26;;;;;;;21.93;10.90;;;;;;;;;;5106503;28;20200;-33
2022/03/30 11:25:53;;;;;;;19.73;10.30;;;;;;;;;;5111999;28;20216;-33
2022/03/30 11:28:21;;;;;;;24.00;11.00;;;;;;;;;;5111409;27;20229;-37
2022/03/30 11:30:53;;;;;;;26.77;10.73;;;;;;;;;;5090782;28;20253;-36
2022/03/30 11:33:22;;;;;;;21.27;10.60;;;;;;;;;;5113009;28;20208;-31
2022/03/30 11:35:50;;;;;;;26.50;12.00;;;;;;;;;;5113193;28;20266;-32
2022/03/30 11:38:23;;;;;;;26.97;11.30;;;;;;;;;;5112731;28;20203;-36
2022/03/30 11:40:51;;;;;;;21.83;10.40;;;;;;;;;;5098434;28;20223;-34
2022/03/30 11:43:22;;;;;;;20.63;9.07;;;;;;;;;;5112788;28;20200;-30
2022/03/30 11:45:52;;;;;;;25.53;11.40;;;;;;;;;;5113414;28;20247;-35
2022/03/30 11:48:19;;;;;;;18.53;9.73;;;;;;;;;;5112846;28;20209;-33
2022/03/30 11:50:48;;;;;;;21.43;10.53;;;;;;;;;;5101046;28;20200;-25
2022/03/30 11:53:16;;;;;;;28.33;10.87;;;;;;;;;;5112655;28;20208;-32
2022/03/30 11:55:51;;;;;;;22.40;10.47;;;;;;;;;;5113486;28;20281;-38
2022/03/30 11:58:29;;;;;;;20.30;9.60;;;;;;;;;;5110140;28;20207;-29
2022/03/30 12:00:59;;;;;;;17.97;8.70;;;;;;;;;;5108754;28;20239;-29
2022/03/30 12:03:26;;;;;;;20.30;8.90;;;;;;;;;;5112859;28;20204;-29
2022/03/30 12:05:55;;;;;;;19.80;9.20;;;;;;;;;;5113419;28;20311;-35
2022/03/30 12:08:23;;;;;;;18.80;8.70;;;;;;;;;;5108401;28;20261;-36
2022/03/30 12:10:53;;;;;;;19.13;9.80;;;;;;;;;;5109871;28;20688;-30
2022/03/30 12:13:24;;;;;;;20.73;9.47;;;;;;;;;;5113316;28;20204;-33
2022/03/30 12:16:02;;;;;;;18.53;8.40;;;;;;;;;;5106927;28;20236;-31
2022/03/30 12:18:30;;;;;;;15.17;8.97;;;;;;;;;;5102208;28;20199;-35
2022/03/30 12:21:01;;;;;;;22.23;10.03;;;;;;;;;;5112729;28;20277;-32
2022/03/30 12:23:28;;;;;;;16.33;9.07;;;;;;;;;;5112538;28;20204;-31
2022/03/30 12:25:55;;;;;;;21.77;9.27;;;;;;;;;;5098466;28;20217;-32
2022/03/30 12:28:31;;;;;;;19.87;8.87;;;;;;;;;;5113107;28;20316;-33
2022/03/30 12:30:58;;;;;;;17.67;8.97;;;;;;;;;;5093719;28;20534;-33
2022/03/30 12:33:27;;;;;;;19.07;10.07;;;;;;;;;;5102996;28;20200;-32
2022/03/30 12:35:55;;;;;;;23.90;10.77;;;;;;;;;;5112147;28;20224;-39
2022/03/30 12:38:23;;;;;;;25.87;11.20;;;;;;;;;;5111656;28;20207;-32
2022/03/30 12:40:53;;;;;;;21.70;10.47;;;;;;;;;;5098627;28;20232;-30
2022/03/30 12:43:24;;;;;;;24.07;9.33;;;;;;;;;;5103593;28;20200;-37
2022/03/30 12:45:56;;;;;;;22.87;10.00;;;;;;;;;;5112291;28;20223;-32
2022/03/30 12:48:31;;;;;;;21.13;10.40;;;;;;;;;;5107481;28;20250;-36
2022/03/30 12:51:01;;;;;;;21.90;9.40;;;;;;;;;;5104809;28;20195;-28
2022/03/30 12:53:35;;;;;;;19.70;10.80;;;;;;;;;;5111495;28;20666;-32
2022/03/30 12:56:13;;;;;;;17.10;9.63;;;;;;;;;;5110732;28;20471;-28
2022/03/30 12:58:51;;;;;;;14.90;8.37;;;;;;;;;;5108639;28;20256;-30
2022/03/30 13:01:35;;;;;;;16.50;8.63;;;;;;;;;;5113273;28;20286;-34
2022/03/30 13:04:02;;;;;;;17.33;9.37;;;;;;;;;;5112625;28;20241;-35
2022/03/30 13:06:31;;;;;;;17.37;8.93;;;;;;;;;;5106199;28;20211;-34
2022/03/30 13:09:12;;;;;;;17.40;8.53;;;;;;;;;;5112617;28;20200;-29
2022/03/30 13:11:43;;;;;;;17.83;9.43;;;;;;;;;;5113082;28;20196;-29
2022/03/30 13:14:14;;;;;;;21.00;9.67;;;;;;;;;;5108971;28;20211;-33
2022/03/30 13:16:42;;;;;;;20.97;9.47;;;;;;;;;;5104819;28;20225;-34
2022/03/30 13:19:11;;;;;;;20.97;9.80;;;;;;;;;;5110175;28;20189;-29
2022/03/30 13:21:40;;;;;;;14.97;9.37;;;;;;;;;;5112613;28;20290;-32
2022/03/30 13:24:11;;;;;;;17.80;8.43;;;;;;;;;;5109185;28;20239;-33
2022/03/30 13:26:39;;;;;;;18.83;9.30;;;;;;;;;;5099752;28;20211;-31
2022/03/30 13:29:07;;;;;;;16.87;8.97;;;;;;;;;;5111898;28;20244;-33
2022/03/30 13:31:36;;;;;;;20.47;9.83;;;;;;;;;;5108691;28;20214;-36
2022/03/30 13:34:07;;;;;;;20.07;9.70;;;;;;;;;;5109773;28;20203;-32
2022/03/30 13:36:34;;;;;;;18.83;9.17;;;;;;;;;;5112333;28;20224;-34
2022/03/30 13:39:03;;;;;;;17.40;9.20;;;;;;;;;;5112791;28;20230;-33
2022/03/30 13:41:30;;;;;;;18.47;10.37;;;;;;;;;;5107896;28;20559;-30
2022/03/30 13:43:58;;;;;;;18.90;9.70;;;;;;;;;;5110662;28;20212;-32
2022/03/30 13:46:26;;;;;;;19.13;10.27;;;;;;;;;;5112213;28;20223;-31
2022/03/30 13:48:53;;;;;;;14.63;9.47;;;;;;;;;;5106393;28;20261;-34
2022/03/30 13:51:21;;;;;;;12.77;8.30;;;;;;;;;;5099983;28;20205;-32
2022/03/30 13:53:48;;;;;;;14.97;9.33;;;;;;;;;;5108767;28;20271;-30
2022/03/30 13:56:18;;;;;;;15.77;9.03;;;;;;;;;;5111723;28;20259;-36
2022/03/30 13:58:45;;;;;;;11.20;7.87;;;;;;;;;;5110898;28;20204;-28
2022/03/30 14:01:13;;;;;;;12.07;7.07;;;;;;;;;;5100027;28;20204;-32
2022/03/30 14:03:41;;;;;;;9.00;6.33;;;;;;;;;;5109990;28;20279;-32
2022/03/30 14:06:08;;;;;;;6.30;5.60;;;;;;;;;;5095742;28;20237;-32
2022/03/30 14:08:35;;;;;;;7.33;5.77;;;;;;;;;;5095985;28;20239;-34
2022/03/30 14:11:03;;;;;;;5.97;5.20;;;;;;;;;;5109530;28;20200;-34
2022/03/30 14:13:32;;;;;;;6.10;5.40;;;;;;;;;;5112128;28;20199;-30
2022/03/30 14:16:01;;;;;;;6.57;4.57;;;;;;;;;;5115296;28;20216;-29
2022/03/30 14:18:29;;;;;;;6.67;5.23;;;;;;;;;;5113907;28;20215;-27
2022/03/30 14:20:56;;;;;;;5.53;4.40;;;;;;;;;;5107641;28;20201;-26
2022/03/30 14:23:23;;;;;;;4.43;3.83;;;;;;;;;;5116424;28;20252;-36
2022/03/30 14:25:51;;;;;;;4.23;3.37;;;;;;;;;;5117076;27;20259;-33
2022/03/30 14:28:19;;;;;;;4.30;3.87;;;;;;;;;;5108097;28;20245;-34
2022/03/30 14:30:48;;;;;;;4.13;3.67;;;;;;;;;;5115129;28;20215;-32
2022/03/30 14:33:15;;;;;;;6.07;4.03;;;;;;;;;;5115375;28;20249;-37
2022/03/30 14:35:45;;;;;;;3.70;3.40;;;;;;;;;;5115296;28;20281;-28
2022/03/30 14:38:13;;;;;;;5.90;4.93;;;;;;;;;;5102229;28;20223;-30
2022/03/30 14:40:41;;;;;;;3.97;3.57;;;;;;;;;;5110516;28;20261;-32
2022/03/30 14:43:08;;;;;;;4.20;3.80;;;;;;;;;;5114750;28;20211;-30
2022/03/30 14:45:35;;;;;;;6.73;3.67;;;;;;;;;;5114095;28;20251;-31